sensor_id;sensor_type;location;lat;lon;timestamp;P1;P2;P0
26185;PMS7003;20067;48.764;9.176;2023-08-07T00:00:34;15.00;14.25;0.75
26185;PMS7003;20067;48.764;9.176;2023-08-07T00:03:00;15.50;15.50;1.00
26185;PMS7003;20067;48.764;9.176;2023-08-07T00:05:29;17.00;17.00;1.00
26185;PMS7003;20067;48.764;9.176;2023-08-07T00:07:55;14.75;14.50;1.00
26185;PMS7003;20067;48.764;9.176;2023-08-07T00:10:20;20.00;17.50;1.00
26185;PMS7003;20067;48.764;9.176;2023-08-07T00:12:46;18.75;18.75;1.00
26185;PMS7003;20067;48.764;9.176;2023-08-07T00:15:12;20.75;20.75;2.00
26185;PMS7003;20067;48.764;9.176;2023-08-07T00:17:37;18.50;18.50;1.00
26185;PMS7003;20067;48.764;9.176;2023-08-07T00:20:03;17.75;17.75;3.00
26185;PMS7003;20067;48.764;9.176;2023-08-07T00:22:29;12.25;12.25;0.50
26185;PMS7003;20067;48.764;9.176;2023-08-07T00:24:55;16.00;16.00;1.00
26185;PMS7003;20067;48.764;9.176;2023-08-07T00:27:21;18.50;15.75;1.00
26185;PMS7003;20067;48.764;9.176;2023-08-07T00:29:46;15.75;15.25;0.00
26185;PMS7003;20067;48.764;9.176;2023-08-07T00:32:12;15.75;13.50;1.00
26185;PMS7003;20067;48.764;9.176;2023-08-07T00:34:38;15.00;14.50;2.00
26185;PMS7003;20067;48.764;9.176;2023-08-07T00:37:03;12.75;12.75;2.00
26185;PMS7003;20067;48.764;9.176;2023-08-07T00:39:29;13.00;13.00;1.00
26185;PMS7003;20067;48.764;9.176;2023-08-07T00:41:55;13.00;13.00;2.50
26185;PMS7003;20067;48.764;9.176;2023-08-07T00:44:20;23.50;22.00;3.00
26185;PMS7003;20067;48.764;9.176;2023-08-07T00:46:48;13.50;13.00;1.00
26185;PMS7003;20067;48.764;9.176;2023-08-07T00:49:13;12.25;11.50;1.00
26185;PMS7003;20067;48.764;9.176;2023-08-07T00:51:39;12.00;12.00;1.00
26185;PMS7003;20067;48.764;9.176;2023-08-07T00:54:05;12.00;12.00;1.00
26185;PMS7003;20067;48.764;9.176;2023-08-07T00:56:34;11.00;11.00;1.00
26185;PMS7003;20067;48.764;9.176;2023-08-07T00:59:00;12.50;12.50;0.75
26185;PMS7003;20067;48.764;9.176;2023-08-07T01:01:26;14.00;14.00;1.00
26185;PMS7003;20067;48.764;9.176;2023-08-07T01:03:52;12.50;12.50;1.00
26185;PMS7003;20067;48.764;9.176;2023-08-07T01:06:18;16.75;16.75;1.50
26185;PMS7003;20067;48.764;9.176;2023-08-07T01:08:44;15.50;14.50;1.00
26185;PMS7003;20067;48.764;9.176;2023-08-07T01:17:27;12.50;12.50;0.25
26185;PMS7003;20067;48.764;9.176;2023-08-07T01:19:39;21.50;18.25;2.00
26185;PMS7003;20067;48.764;9.176;2023-08-07T01:24:44;17.25;17.25;1.00
26185;PMS7003;20067;48.764;9.176;2023-08-07T01:32:09;13.00;13.00;1.00
26185;PMS7003;20067;48.764;9.176;2023-08-07T01:34:39;13.00;12.75;1.00
26185;PMS7003;20067;48.764;9.176;2023-08-07T01:37:07;14.50;13.00;1.00
26185;PMS7003;20067;48.764;9.176;2023-08-07T01:39:36;13.00;13.00;1.00
26185;PMS7003;20067;48.764;9.176;2023-08-07T01:42:02;15.00;15.00;1.50
26185;PMS7003;20067;48.764;9.176;2023-08-07T01:44:30;12.75;12.75;1.00
26185;PMS7003;20067;48.764;9.176;2023-08-07T01:46:56;17.50;15.75;3.00
26185;PMS7003;20067;48.764;9.176;2023-08-07T01:49:21;20.50;19.00;3.00
26185;PMS7003;20067;48.764;9.176;2023-08-07T01:51:47;9.25;9.25;0.25
26185;PMS7003;20067;48.764;9.176;2023-08-07T01:54:13;15.25;15.25;2.50
26185;PMS7003;20067;48.764;9.176;2023-08-07T01:56:38;13.00;13.00;1.00
26185;PMS7003;20067;48.764;9.176;2023-08-07T01:59:04;14.25;12.25;1.00
26185;PMS7003;20067;48.764;9.176;2023-08-07T02:01:29;11.75;11.25;1.00
26185;PMS7003;20067;48.764;9.176;2023-08-07T02:03:55;15.00;15.00;3.00
26185;PMS7003;20067;48.764;9.176;2023-08-07T02:06:20;18.75;18.75;3.00
26185;PMS7003;20067;48.764;9.176;2023-08-07T02:08:46;16.25;16.25;1.00
26185;PMS7003;20067;48.764;9.176;2023-08-07T02:11:12;11.75;10.50;1.00
26185;PMS7003;20067;48.764;9.176;2023-08-07T02:13:38;12.00;12.00;1.00
26185;PMS7003;20067;48.764;9.176;2023-08-07T02:16:03;14.50;14.50;2.50
26185;PMS7003;20067;48.764;9.176;2023-08-07T02:18:29;10.50;10.50;1.00
26185;PMS7003;20067;48.764;9.176;2023-08-07T02:20:54;11.00;9.75;0.50
26185;PMS7003;20067;48.764;9.176;2023-08-07T02:23:20;12.00;12.00;2.50
26185;PMS7003;20067;48.764;9.176;2023-08-07T02:25:46;12.00;10.00;1.00
26185;PMS7003;20067;48.764;9.176;2023-08-07T02:28:13;13.50;13.50;1.50
26185;PMS7003;20067;48.764;9.176;2023-08-07T02:30:38;14.00;13.00;1.00
26185;PMS7003;20067;48.764;9.176;2023-08-07T02:33:04;12.25;12.00;1.00
26185;PMS7003;20067;48.764;9.176;2023-08-07T02:35:29;11.00;9.25;1.00
26185;PMS7003;20067;48.764;9.176;2023-08-07T02:37:55;14.25;14.25;1.00
26185;PMS7003;20067;48.764;9.176;2023-08-07T02:40:20;18.75;17.50;3.00
26185;PMS7003;20067;48.764;9.176;2023-08-07T02:42:46;13.00;11.50;1.00
26185;PMS7003;20067;48.764;9.176;2023-08-07T02:45:12;13.50;12.00;1.00
26185;PMS7003;20067;48.764;9.176;2023-08-07T02:47:37;12.75;12.75;1.00
26185;PMS7003;20067;48.764;9.176;2023-08-07T02:50:03;12.00;12.00;1.00
26185;PMS7003;20067;48.764;9.176;2023-08-07T02:52:29;14.00;14.00;1.50
26185;PMS7003;20067;48.764;9.176;2023-08-07T02:54:55;17.00;15.25;1.00
26185;PMS7003;20067;48.764;9.176;2023-08-07T02:57:20;19.50;19.50;3.00
26185;PMS7003;20067;48.764;9.176;2023-08-07T02:59:46;12.75;12.00;1.00
26185;PMS7003;20067;48.764;9.176;2023-08-07T03:02:11;11.50;10.00;1.00
26185;PMS7003;20067;48.764;9.176;2023-08-07T03:04:37;11.50;11.50;0.75
26185;PMS7003;20067;48.764;9.176;2023-08-07T03:07:02;16.00;16.00;1.00
26185;PMS7003;20067;48.764;9.176;2023-08-07T03:09:28;17.25;15.75;2.00
26185;PMS7003;20067;48.764;9.176;2023-08-07T03:11:54;16.75;16.50;1.00
26185;PMS7003;20067;48.764;9.176;2023-08-07T03:14:19;15.50;15.50;1.50
26185;PMS7003;20067;48.764;9.176;2023-08-07T03:16:45;13.50;13.50;1.00
26185;PMS7003;20067;48.764;9.176;2023-08-07T03:19:11;12.50;12.25;1.00
26185;PMS7003;20067;48.764;9.176;2023-08-07T03:21:36;13.00;12.25;1.00
26185;PMS7003;20067;48.764;9.176;2023-08-07T03:24:02;12.00;12.00;1.00
26185;PMS7003;20067;48.764;9.176;2023-08-07T03:26:28;12.00;12.00;1.00
26185;PMS7003;20067;48.764;9.176;2023-08-07T03:28:53;12.25;12.25;1.00
26185;PMS7003;20067;48.764;9.176;2023-08-07T03:31:19;13.00;13.00;2.50
26185;PMS7003;20067;48.764;9.176;2023-08-07T03:33:46;15.50;12.75;1.00
26185;PMS7003;20067;48.764;9.176;2023-08-07T03:36:12;12.50;11.00;0.00
26185;PMS7003;20067;48.764;9.176;2023-08-07T03:38:38;15.00;15.00;1.00
26185;PMS7003;20067;48.764;9.176;2023-08-07T03:41:03;13.00;13.00;1.50
26185;PMS7003;20067;48.764;9.176;2023-08-07T03:43:29;18.25;15.50;1.00
26185;PMS7003;20067;48.764;9.176;2023-08-07T03:45:55;12.00;12.00;1.00
26185;PMS7003;20067;48.764;9.176;2023-08-07T03:48:24;19.00;18.75;3.00
26185;PMS7003;20067;48.764;9.176;2023-08-07T03:50:49;17.75;16.00;1.00
26185;PMS7003;20067;48.764;9.176;2023-08-07T03:53:15;12.25;12.25;1.00
26185;PMS7003;20067;48.764;9.176;2023-08-07T03:55:41;14.50;14.50;1.00
26185;PMS7003;20067;48.764;9.176;2023-08-07T03:58:07;15.50;12.00;0.75
26185;PMS7003;20067;48.764;9.176;2023-08-07T04:00:33;10.25;10.25;0.25
26185;PMS7003;20067;48.764;9.176;2023-08-07T04:02:58;12.00;12.00;0.75
26185;PMS7003;20067;48.764;9.176;2023-08-07T04:05:24;21.00;20.25;2.00
26185;PMS7003;20067;48.764;9.176;2023-08-07T04:07:50;18.50;17.00;1.00
26185;PMS7003;20067;48.764;9.176;2023-08-07T04:10:15;12.00;10.50;1.00
26185;PMS7003;20067;48.764;9.176;2023-08-07T04:12:41;12.50;12.00;0.00
26185;PMS7003;20067;48.764;9.176;2023-08-07T04:15:07;13.50;13.50;0.00
26185;PMS7003;20067;48.764;9.176;2023-08-07T04:17:33;23.75;21.75;2.00
26185;PMS7003;20067;48.764;9.176;2023-08-07T04:19:59;20.25;17.00;1.00
26185;PMS7003;20067;48.764;9.176;2023-08-07T04:22:25;16.25;15.50;1.00
26185;PMS7003;20067;48.764;9.176;2023-08-07T04:24:50;19.75;19.75;2.50
26185;PMS7003;20067;48.764;9.176;2023-08-07T04:27:16;13.75;13.75;1.00
26185;PMS7003;20067;48.764;9.176;2023-08-07T04:29:42;19.00;19.00;1.00
26185;PMS7003;20067;48.764;9.176;2023-08-07T04:32:07;14.50;14.50;3.00
26185;PMS7003;20067;48.764;9.176;2023-08-07T04:34:33;17.25;17.00;3.00
26185;PMS7003;20067;48.764;9.176;2023-08-07T04:37:00;16.75;15.75;1.00
26185;PMS7003;20067;48.764;9.176;2023-08-07T04:39:25;21.25;19.50;3.00
26185;PMS7003;20067;48.764;9.176;2023-08-07T04:41:51;22.00;22.00;1.00
26185;PMS7003;20067;48.764;9.176;2023-08-07T04:44:17;16.75;16.25;1.00
26185;PMS7003;20067;48.764;9.176;2023-08-07T04:46:42;11.50;11.50;0.00
26185;PMS7003;20067;48.764;9.176;2023-08-07T04:49:08;11.00;11.00;0.75
26185;PMS7003;20067;48.764;9.176;2023-08-07T04:51:34;15.75;15.75;1.00
26185;PMS7003;20067;48.764;9.176;2023-08-07T04:53:59;13.00;13.00;0.50
26185;PMS7003;20067;48.764;9.176;2023-08-07T04:56:25;12.00;12.00;1.00
26185;PMS7003;20067;48.764;9.176;2023-08-07T04:58:50;14.75;13.75;1.00
26185;PMS7003;20067;48.764;9.176;2023-08-07T05:01:16;12.25;12.25;0.75
26185;PMS7003;20067;48.764;9.176;2023-08-07T05:03:42;14.00;13.00;0.75
26185;PMS7003;20067;48.764;9.176;2023-08-07T05:06:07;14.50;14.50;1.00
26185;PMS7003;20067;48.764;9.176;2023-08-07T05:08:33;12.00;12.00;1.00
26185;PMS7003;20067;48.764;9.176;2023-08-07T05:10:58;16.00;14.75;1.00
26185;PMS7003;20067;48.764;9.176;2023-08-07T05:13:24;12.75;12.75;0.75
26185;PMS7003;20067;48.764;9.176;2023-08-07T05:15:49;15.00;13.50;1.00
26185;PMS7003;20067;48.764;9.176;2023-08-07T05:18:15;13.50;13.50;1.50
26185;PMS7003;20067;48.764;9.176;2023-08-07T05:20:42;12.00;12.00;0.50
26185;PMS7003;20067;48.764;9.176;2023-08-07T05:23:08;14.00;14.00;1.00
26185;PMS7003;20067;48.764;9.176;2023-08-07T05:25:33;16.00;16.00;0.75
26185;PMS7003;20067;48.764;9.176;2023-08-07T05:27:59;18.00;16.75;1.00
26185;PMS7003;20067;48.764;9.176;2023-08-07T05:30:24;22.25;22.25;1.00
26185;PMS7003;20067;48.764;9.176;2023-08-07T05:32:50;21.25;21.25;1.00
26185;PMS7003;20067;48.764;9.176;2023-08-07T05:35:16;15.00;15.00;3.00
26185;PMS7003;20067;48.764;9.176;2023-08-07T05:37:41;28.00;28.00;1.00
26185;PMS7003;20067;48.764;9.176;2023-08-07T05:40:07;20.25;19.00;1.00
26185;PMS7003;20067;48.764;9.176;2023-08-07T05:42:32;14.75;14.75;1.00
26185;PMS7003;20067;48.764;9.176;2023-08-07T05:44:59;18.25;18.25;1.00
26185;PMS7003;20067;48.764;9.176;2023-08-07T05:47:25;16.00;16.00;0.00
26185;PMS7003;20067;48.764;9.176;2023-08-07T05:49:51;18.00;17.00;0.00
26185;PMS7003;20067;48.764;9.176;2023-08-07T05:52:17;14.00;12.50;1.00
26185;PMS7003;20067;48.764;9.176;2023-08-07T05:54:42;14.25;14.25;1.00
26185;PMS7003;20067;48.764;9.176;2023-08-07T05:57:08;16.25;15.25;1.00
26185;PMS7003;20067;48.764;9.176;2023-08-07T05:59:34;9.75;9.75;0.25
26185;PMS7003;20067;48.764;9.176;2023-08-07T06:02:01;11.25;11.25;0.25
26185;PMS7003;20067;48.764;9.176;2023-08-07T06:04:27;11.25;11.25;0.00
26185;PMS7003;20067;48.764;9.176;2023-08-07T06:06:52;18.00;16.00;1.00
26185;PMS7003;20067;48.764;9.176;2023-08-07T06:09:18;15.00;15.00;1.00
26185;PMS7003;20067;48.764;9.176;2023-08-07T06:11:45;10.50;10.50;0.00
26185;PMS7003;20067;48.764;9.176;2023-08-07T06:14:11;10.50;10.50;0.00
26185;PMS7003;20067;48.764;9.176;2023-08-07T06:16:36;11.75;11.75;0.00
26185;PMS7003;20067;48.764;9.176;2023-08-07T06:19:02;16.25;15.75;1.00
26185;PMS7003;20067;48.764;9.176;2023-08-07T06:21:28;11.00;11.00;0.50
26185;PMS7003;20067;48.764;9.176;2023-08-07T06:23:54;10.25;10.25;1.00
26185;PMS7003;20067;48.764;9.176;2023-08-07T06:26:20;13.00;10.50;1.00
26185;PMS7003;20067;48.764;9.176;2023-08-07T06:28:45;9.00;9.00;1.00
26185;PMS7003;20067;48.764;9.176;2023-08-07T06:31:11;9.75;9.75;1.00
26185;PMS7003;20067;48.764;9.176;2023-08-07T06:33:37;17.25;17.25;1.00
26185;PMS7003;20067;48.764;9.176;2023-08-07T06:36:03;14.75;13.50;1.00
26185;PMS7003;20067;48.764;9.176;2023-08-07T06:38:30;14.00;14.00;1.00
26185;PMS7003;20067;48.764;9.176;2023-08-07T06:40:56;13.00;11.25;1.75
26185;PMS7003;20067;48.764;9.176;2023-08-07T06:43:22;17.75;16.25;1.00
26185;PMS7003;20067;48.764;9.176;2023-08-07T06:45:51;12.50;12.50;1.75
26185;PMS7003;20067;48.764;9.176;2023-08-07T06:48:18;12.00;12.00;1.00
26185;PMS7003;20067;48.764;9.176;2023-08-07T06:50:45;12.25;12.25;0.75
26185;PMS7003;20067;48.764;9.176;2023-08-07T06:53:11;10.00;10.00;1.00
26185;PMS7003;20067;48.764;9.176;2023-08-07T06:55:37;12.50;9.75;1.00
26185;PMS7003;20067;48.764;9.176;2023-08-07T06:58:02;8.75;8.75;0.50
26185;PMS7003;20067;48.764;9.176;2023-08-07T07:00:28;12.00;12.00;1.00
26185;PMS7003;20067;48.764;9.176;2023-08-07T07:02:54;14.00;13.25;1.00
26185;PMS7003;20067;48.764;9.176;2023-08-07T07:05:19;9.75;9.75;0.50
26185;PMS7003;20067;48.764;9.176;2023-08-07T07:07:45;12.50;12.50;1.00
26185;PMS7003;20067;48.764;9.176;2023-08-07T07:10:12;11.00;10.25;1.00
26185;PMS7003;20067;48.764;9.176;2023-08-07T07:12:37;8.25;8.25;0.00
26185;PMS7003;20067;48.764;9.176;2023-08-07T07:15:03;10.00;9.00;1.00
26185;PMS7003;20067;48.764;9.176;2023-08-07T07:17:29;11.00;11.00;1.00
26185;PMS7003;20067;48.764;9.176;2023-08-07T07:19:54;16.00;16.00;1.00
26185;PMS7003;20067;48.764;9.176;2023-08-07T07:22:21;13.00;13.00;2.00
26185;PMS7003;20067;48.764;9.176;2023-08-07T07:24:47;10.00;10.00;0.00
26185;PMS7003;20067;48.764;9.176;2023-08-07T07:27:13;11.00;11.00;1.00
26185;PMS7003;20067;48.764;9.176;2023-08-07T07:29:38;9.50;9.50;1.00
26185;PMS7003;20067;48.764;9.176;2023-08-07T07:32:04;7.75;7.50;0.00
26185;PMS7003;20067;48.764;9.176;2023-08-07T07:34:30;10.50;10.50;1.00
26185;PMS7003;20067;48.764;9.176;2023-08-07T07:36:56;13.00;13.00;1.00
26185;PMS7003;20067;48.764;9.176;2023-08-07T07:39:21;10.00;10.00;1.00
26185;PMS7003;20067;48.764;9.176;2023-08-07T07:41:47;11.00;11.00;1.00
26185;PMS7003;20067;48.764;9.176;2023-08-07T07:44:12;10.50;10.50;1.00
26185;PMS7003;20067;48.764;9.176;2023-08-07T07:46:38;12.00;12.00;1.25
26185;PMS7003;20067;48.764;9.176;2023-08-07T07:49:03;10.25;10.25;1.25
26185;PMS7003;20067;48.764;9.176;2023-08-07T07:51:30;9.75;9.75;1.00
26185;PMS7003;20067;48.764;9.176;2023-08-07T07:53:57;11.25;10.00;0.50
26185;PMS7003;20067;48.764;9.176;2023-08-07T07:56:23;15.00;12.50;1.00
26185;PMS7003;20067;48.764;9.176;2023-08-07T07:58:48;9.00;9.00;1.00
26185;PMS7003;20067;48.764;9.176;2023-08-07T08:01:14;11.00;10.00;1.00
26185;PMS7003;20067;48.764;9.176;2023-08-07T08:03:40;13.00;12.25;1.00
26185;PMS7003;20067;48.764;9.176;2023-08-07T08:06:06;8.00;7.00;0.50
26185;PMS7003;20067;48.764;9.176;2023-08-07T08:08:31;10.75;10.50;0.50
26185;PMS7003;20067;48.764;9.176;2023-08-07T08:10:57;7.75;7.75;0.75
26185;PMS7003;20067;48.764;9.176;2023-08-07T08:13:22;13.00;12.75;1.00
26185;PMS7003;20067;48.764;9.176;2023-08-07T08:15:50;11.00;11.00;0.25
26185;PMS7003;20067;48.764;9.176;2023-08-07T08:18:16;11.00;11.00;1.00
26185;PMS7003;20067;48.764;9.176;2023-08-07T08:20:41;10.25;8.50;0.50
26185;PMS7003;20067;48.764;9.176;2023-08-07T08:23:07;12.50;10.75;1.00
26185;PMS7003;20067;48.764;9.176;2023-08-07T08:25:32;10.00;9.50;1.00
26185;PMS7003;20067;48.764;9.176;2023-08-07T08:27:58;11.25;10.25;1.00
26185;PMS7003;20067;48.764;9.176;2023-08-07T08:30:25;13.00;12.25;1.00
26185;PMS7003;20067;48.764;9.176;2023-08-07T08:32:50;12.75;12.75;1.00
26185;PMS7003;20067;48.764;9.176;2023-08-07T08:35:16;10.00;10.00;0.25
26185;PMS7003;20067;48.764;9.176;2023-08-07T08:37:41;9.50;9.50;1.00
26185;PMS7003;20067;48.764;9.176;2023-08-07T08:40:08;11.00;9.25;1.00
26185;PMS7003;20067;48.764;9.176;2023-08-07T08:42:37;9.75;8.75;1.00
26185;PMS7003;20067;48.764;9.176;2023-08-07T08:45:04;14.25;13.25;1.50
26185;PMS7003;20067;48.764;9.176;2023-08-07T08:47:31;14.50;12.50;1.00
26185;PMS7003;20067;48.764;9.176;2023-08-07T08:50:01;11.00;11.00;1.00
26185;PMS7003;20067;48.764;9.176;2023-08-07T08:52:30;9.00;9.00;1.00
26185;PMS7003;20067;48.764;9.176;2023-08-07T08:54:57;7.00;7.00;0.00
26185;PMS7003;20067;48.764;9.176;2023-08-07T08:57:24;11.00;11.00;0.00
26185;PMS7003;20067;48.764;9.176;2023-08-07T08:59:53;13.75;13.50;0.00
26185;PMS7003;20067;48.764;9.176;2023-08-07T09:02:21;6.25;6.25;0.00
26185;PMS7003;20067;48.764;9.176;2023-08-07T09:04:47;7.50;7.00;0.00
26185;PMS7003;20067;48.764;9.176;2023-08-07T09:07:13;9.00;9.00;0.25
26185;PMS7003;20067;48.764;9.176;2023-08-07T09:09:41;8.50;8.50;0.00
26185;PMS7003;20067;48.764;9.176;2023-08-07T09:12:11;7.00;6.25;1.00
26185;PMS7003;20067;48.764;9.176;2023-08-07T09:14:41;8.00;8.00;0.75
26185;PMS7003;20067;48.764;9.176;2023-08-07T09:17:09;8.25;8.25;0.00
26185;PMS7003;20067;48.764;9.176;2023-08-07T09:19:38;7.00;6.00;0.50
26185;PMS7003;20067;48.764;9.176;2023-08-07T09:22:04;8.25;8.25;0.00
26185;PMS7003;20067;48.764;9.176;2023-08-07T09:24:31;6.00;6.00;1.00
26185;PMS7003;20067;48.764;9.176;2023-08-07T09:26:57;8.25;8.25;1.00
26185;PMS7003;20067;48.764;9.176;2023-08-07T09:29:23;9.25;9.00;1.00
26185;PMS7003;20067;48.764;9.176;2023-08-07T09:31:49;13.25;13.25;1.25
26185;PMS7003;20067;48.764;9.176;2023-08-07T09:34:15;8.75;8.75;0.75
26185;PMS7003;20067;48.764;9.176;2023-08-07T09:36:45;9.00;9.00;0.25
26185;PMS7003;20067;48.764;9.176;2023-08-07T09:39:11;9.00;8.00;1.00
26185;PMS7003;20067;48.764;9.176;2023-08-07T09:41:36;8.75;8.75;0.00
26185;PMS7003;20067;48.764;9.176;2023-08-07T09:44:08;8.00;8.00;0.00
26185;PMS7003;20067;48.764;9.176;2023-08-07T09:46:42;12.00;11.00;0.50
26185;PMS7003;20067;48.764;9.176;2023-08-07T09:49:08;9.50;9.50;1.00
26185;PMS7003;20067;48.764;9.176;2023-08-07T09:51:43;6.50;6.50;0.75
26185;PMS7003;20067;48.764;9.176;2023-08-07T09:54:10;8.75;7.50;0.00
26185;PMS7003;20067;48.764;9.176;2023-08-07T09:56:36;7.00;7.00;0.00
26185;PMS7003;20067;48.764;9.176;2023-08-07T09:59:06;8.25;8.25;1.25
26185;PMS7003;20067;48.764;9.176;2023-08-07T10:01:33;8.00;8.00;1.00
26185;PMS7003;20067;48.764;9.176;2023-08-07T10:04:03;10.75;10.75;0.25
26185;PMS7003;20067;48.764;9.176;2023-08-07T10:06:30;10.00;9.00;0.75
26185;PMS7003;20067;48.764;9.176;2023-08-07T10:08:56;12.75;12.25;1.00
26185;PMS7003;20067;48.764;9.176;2023-08-07T10:11:22;17.50;16.25;1.75
26185;PMS7003;20067;48.764;9.176;2023-08-07T10:13:48;18.00;16.00;1.00
26185;PMS7003;20067;48.764;9.176;2023-08-07T10:16:15;13.50;11.50;1.00
26185;PMS7003;20067;48.764;9.176;2023-08-07T10:18:40;20.00;18.00;1.00
26185;PMS7003;20067;48.764;9.176;2023-08-07T10:21:06;16.00;14.25;1.00
26185;PMS7003;20067;48.764;9.176;2023-08-07T10:23:34;20.75;8.25;1.00
26185;PMS7003;20067;48.764;9.176;2023-08-07T10:26:01;18.25;8.50;1.00
26185;PMS7003;20067;48.764;9.176;2023-08-07T10:28:29;24.50;23.50;2.00
26185;PMS7003;20067;48.764;9.176;2023-08-07T10:30:57;56.00;39.25;6.00
26185;PMS7003;20067;48.764;9.176;2023-08-07T10:33:24;33.50;14.00;2.00
26185;PMS7003;20067;48.764;9.176;2023-08-07T10:35:51;27.75;18.00;2.00
26185;PMS7003;20067;48.764;9.176;2023-08-07T10:38:18;17.75;16.50;2.00
26185;PMS7003;20067;48.764;9.176;2023-08-07T10:43:30;40.00;37.00;4.50
26185;PMS7003;20067;48.764;9.176;2023-08-07T10:48:44;32.75;27.75;3.00
26185;PMS7003;20067;48.764;9.176;2023-08-07T10:51:14;27.25;25.50;4.00
26185;PMS7003;20067;48.764;9.176;2023-08-07T10:53:42;18.75;17.75;1.75
26185;PMS7003;20067;48.764;9.176;2023-08-07T10:56:11;13.75;13.75;1.00
26185;PMS7003;20067;48.764;9.176;2023-08-07T10:59:09;14.00;11.75;1.00
26185;PMS7003;20067;48.764;9.176;2023-08-07T11:04:07;9.50;9.50;1.00
26185;PMS7003;20067;48.764;9.176;2023-08-07T11:06:40;12.25;12.25;0.75
26185;PMS7003;20067;48.764;9.176;2023-08-07T11:09:07;10.50;10.50;1.00
26185;PMS7003;20067;48.764;9.176;2023-08-07T11:11:41;8.00;8.00;1.00
26185;PMS7003;20067;48.764;9.176;2023-08-07T11:14:15;10.00;10.00;1.00
26185;PMS7003;20067;48.764;9.176;2023-08-07T11:16:42;10.00;10.00;0.00
26185;PMS7003;20067;48.764;9.176;2023-08-07T11:19:08;10.50;10.50;1.25
26185;PMS7003;20067;48.764;9.176;2023-08-07T11:21:37;9.00;9.00;1.00
26185;PMS7003;20067;48.764;9.176;2023-08-07T11:24:03;8.75;8.75;1.00
26185;PMS7003;20067;48.764;9.176;2023-08-07T11:26:29;13.50;13.50;1.00
26185;PMS7003;20067;48.764;9.176;2023-08-07T11:28:55;9.25;9.25;1.00
26185;PMS7003;20067;48.764;9.176;2023-08-07T11:31:21;12.25;10.75;1.25
26185;PMS7003;20067;48.764;9.176;2023-08-07T11:33:54;12.25;12.25;1.50
26185;PMS7003;20067;48.764;9.176;2023-08-07T11:36:20;12.00;10.75;2.00
26185;PMS7003;20067;48.764;9.176;2023-08-07T11:38:48;12.25;11.50;1.00
26185;PMS7003;20067;48.764;9.176;2023-08-07T11:41:15;17.00;16.25;2.00
26185;PMS7003;20067;48.764;9.176;2023-08-07T11:43:42;11.50;11.50;1.00
26185;PMS7003;20067;48.764;9.176;2023-08-07T11:46:09;17.50;16.25;1.50
26185;PMS7003;20067;48.764;9.176;2023-08-07T11:48:38;14.75;14.75;1.00
26185;PMS7003;20067;48.764;9.176;2023-08-07T11:51:05;12.75;12.75;1.00
26185;PMS7003;20067;48.764;9.176;2023-08-07T11:53:33;16.50;15.00;2.00
26185;PMS7003;20067;48.764;9.176;2023-08-07T11:56:02;19.50;19.50;4.00
26185;PMS7003;20067;48.764;9.176;2023-08-07T11:58:36;16.75;16.75;1.25
26185;PMS7003;20067;48.764;9.176;2023-08-07T12:01:08;12.00;12.00;2.00
26185;PMS7003;20067;48.764;9.176;2023-08-07T12:03:36;19.50;19.50;2.00
26185;PMS7003;20067;48.764;9.176;2023-08-07T12:06:04;14.25;14.25;2.00
26185;PMS7003;20067;48.764;9.176;2023-08-07T12:08:36;10.00;10.00;1.00
26185;PMS7003;20067;48.764;9.176;2023-08-07T12:11:06;15.75;13.50;1.00
26185;PMS7003;20067;48.764;9.176;2023-08-07T12:13:36;15.75;15.75;2.00
26185;PMS7003;20067;48.764;9.176;2023-08-07T12:16:11;11.00;11.00;1.75
26185;PMS7003;20067;48.764;9.176;2023-08-07T12:18:44;11.50;11.50;1.00
26185;PMS7003;20067;48.764;9.176;2023-08-07T12:21:21;11.75;10.50;1.50
26185;PMS7003;20067;48.764;9.176;2023-08-07T12:23:50;11.25;10.50;1.25
26185;PMS7003;20067;48.764;9.176;2023-08-07T12:26:17;12.00;12.00;2.00
26185;PMS7003;20067;48.764;9.176;2023-08-07T12:28:43;11.75;11.50;1.50
26185;PMS7003;20067;48.764;9.176;2023-08-07T12:31:09;12.00;11.75;1.50
26185;PMS7003;20067;48.764;9.176;2023-08-07T12:33:36;14.00;12.00;2.00
26185;PMS7003;20067;48.764;9.176;2023-08-07T12:36:02;14.00;14.00;2.00
26185;PMS7003;20067;48.764;9.176;2023-08-07T12:38:28;11.00;11.00;1.75
26185;PMS7003;20067;48.764;9.176;2023-08-07T12:40:55;7.25;7.25;1.00
26185;PMS7003;20067;48.764;9.176;2023-08-07T12:43:22;7.00;7.00;1.00
26185;PMS7003;20067;48.764;9.176;2023-08-07T12:45:53;11.00;11.00;2.00
26185;PMS7003;20067;48.764;9.176;2023-08-07T12:48:19;8.00;8.00;1.00
26185;PMS7003;20067;48.764;9.176;2023-08-07T12:50:45;8.00;8.00;1.75
26185;PMS7003;20067;48.764;9.176;2023-08-07T12:53:11;8.00;8.00;1.50
26185;PMS7003;20067;48.764;9.176;2023-08-07T12:55:37;8.75;8.25;1.00
26185;PMS7003;20067;48.764;9.176;2023-08-07T12:58:02;8.25;8.25;1.00
26185;PMS7003;20067;48.764;9.176;2023-08-07T13:00:28;9.00;9.00;2.00
26185;PMS7003;20067;48.764;9.176;2023-08-07T13:02:54;10.75;10.75;1.50
26185;PMS7003;20067;48.764;9.176;2023-08-07T13:05:22;10.00;9.50;1.00
26185;PMS7003;20067;48.764;9.176;2023-08-07T13:07:48;10.00;10.00;2.00
26185;PMS7003;20067;48.764;9.176;2023-08-07T13:10:16;11.50;11.50;2.00
26185;PMS7003;20067;48.764;9.176;2023-08-07T13:12:47;12.25;9.75;1.00
26185;PMS7003;20067;48.764;9.176;2023-08-07T13:15:16;13.75;12.25;2.00
26185;PMS7003;20067;48.764;9.176;2023-08-07T13:17:50;27.75;27.75;7.75
26185;PMS7003;20067;48.764;9.176;2023-08-07T13:20:16;25.50;25.50;8.00
26185;PMS7003;20067;48.764;9.176;2023-08-07T13:22:42;36.50;36.50;8.00
26185;PMS7003;20067;48.764;9.176;2023-08-07T13:25:10;50.25;46.00;15.25
26185;PMS7003;20067;48.764;9.176;2023-08-07T13:27:37;28.25;28.00;16.75
26185;PMS7003;20067;48.764;9.176;2023-08-07T13:30:03;33.75;33.75;22.25
26185;PMS7003;20067;48.764;9.176;2023-08-07T13:32:30;37.50;36.25;25.25
26185;PMS7003;20067;48.764;9.176;2023-08-07T13:34:59;31.00;31.00;14.50
26185;PMS7003;20067;48.764;9.176;2023-08-07T13:37:25;37.00;37.00;25.00
26185;PMS7003;20067;48.764;9.176;2023-08-07T13:39:51;28.00;28.00;13.25
26185;PMS7003;20067;48.764;9.176;2023-08-07T13:42:18;23.75;23.75;5.00
26185;PMS7003;20067;48.764;9.176;2023-08-07T13:44:44;18.50;18.50;3.50
26185;PMS7003;20067;48.764;9.176;2023-08-07T13:47:10;37.50;36.75;18.50
26185;PMS7003;20067;48.764;9.176;2023-08-07T13:49:36;28.75;28.75;9.00
26185;PMS7003;20067;48.764;9.176;2023-08-07T13:52:03;32.75;31.75;19.50
26185;PMS7003;20067;48.764;9.176;2023-08-07T13:54:29;32.25;32.25;19.75
26185;PMS7003;20067;48.764;9.176;2023-08-07T13:56:55;30.25;29.50;18.00
26185;PMS7003;20067;48.764;9.176;2023-08-07T13:59:20;25.50;25.50;15.00
26185;PMS7003;20067;48.764;9.176;2023-08-07T14:01:46;34.00;33.75;7.00
26185;PMS7003;20067;48.764;9.176;2023-08-07T14:04:12;25.25;25.00;5.25
26185;PMS7003;20067;48.764;9.176;2023-08-07T14:06:39;28.00;27.25;12.75
26185;PMS7003;20067;48.764;9.176;2023-08-07T14:09:08;25.50;23.50;14.50
26185;PMS7003;20067;48.764;9.176;2023-08-07T14:11:34;24.75;23.25;6.50
26185;PMS7003;20067;48.764;9.176;2023-08-07T14:14:00;25.75;25.75;13.50
26185;PMS7003;20067;48.764;9.176;2023-08-07T14:16:25;22.75;22.50;12.50
26185;PMS7003;20067;48.764;9.176;2023-08-07T14:18:51;21.25;21.25;13.00